»·PEaware :: SWA727 KSJC-KPHX

SWA727 :: KSJC-KPHX

FLIGHT INFORMATION

Flight Status: Arrived
Operator:
Southwest Airlines
More flights by this operator :: More flights under this callsign
Pilot: Anonymous 34646 (34646)
Aircraft: BOEING 737-700
(B737)
More flights by this aircraft type
Origin: KSJC Mineta San Jose Intl
United States
Destination: KPHX Phoenix Sky Harbor Intl
United States
More flights between these airports :: More routes between these airports
Route: TECKY3 LOSHN BOILE BLH HYDRR1
File this flight plan on PilotEdge
Remarks: RMK / SIMBRIEF
Altitude:
(Current/Filed)
39,000ft
Speed:
(Current/Filed)
449kts
Departed: 10-Jun-21 05:16 PM
Arrived: 10-Jun-21 06:49 PM
Distance/Time
Traveled:
540nm/1:33
Distance/Time
To Go:
Arrived

Flight Plot

Page will automatically refresh every two minutes.

Flight plan parsing failed; only flown route is shown


Map Options




Map Legend


Flown Route
Filed Route
Departure Airport
Arrival Airport
Navaid (VOR, NDB)
Fix

Horizontal Profiles

Position Reports

Time Latitude Longitude Heading Altitude Ground
Speed
10-Jun-21 16:47 37.362811 -121.922948 48 70ft 0kts
10-Jun-21 16:48 37.362811 -121.922948 48 70ft 0kts
10-Jun-21 16:49 37.362811 -121.922948 48 70ft 0kts
10-Jun-21 16:50 37.362811 -121.922948 48 70ft 0kts
10-Jun-21 16:51 37.362811 -121.922948 48 70ft 0kts
10-Jun-21 16:52 37.362811 -121.922948 48 70ft 0kts
10-Jun-21 16:53 37.362811 -121.922948 48 70ft 0kts
10-Jun-21 16:54 37.362811 -121.922948 48 70ft 0kts
10-Jun-21 16:55 37.362811 -121.922948 48 70ft 0kts
10-Jun-21 16:56 37.362811 -121.922948 48 70ft 0kts
10-Jun-21 16:57 37.362811 -121.922948 48 70ft 0kts
10-Jun-21 16:58 37.362811 -121.922948 48 70ft 0kts
10-Jun-21 16:59 37.362811 -121.922948 48 70ft 0kts
10-Jun-21 17:00 37.362811 -121.922948 48 70ft 0kts
10-Jun-21 17:01 37.362811 -121.922948 48 70ft 0kts
10-Jun-21 17:02 37.362811 -121.922948 48 70ft 0kts
10-Jun-21 17:03 37.362811 -121.922948 48 70ft 0kts
10-Jun-21 17:04 37.362811 -121.922948 48 70ft 0kts
10-Jun-21 17:05 37.362769 -121.923007 48 70ft 2kts
10-Jun-21 17:06 37.362393 -121.923543 47 70ft 0kts
10-Jun-21 17:07 37.362393 -121.923543 47 70ft 0kts
10-Jun-21 17:08 37.362393 -121.923543 47 70ft 0kts
10-Jun-21 17:09 37.362393 -121.923542 47 70ft 0kts
10-Jun-21 17:11 37.360991 -121.922238 139 70ft 12kts
10-Jun-21 17:12 37.358265 -121.919245 139 70ft 12kts
10-Jun-21 17:13 37.355039 -121.915708 138 70ft 19kts
10-Jun-21 17:14 37.353175 -121.914332 228 70ft 0kts
10-Jun-21 17:15 37.352986 -121.914597 228 70ft 12kts
10-Jun-21 17:16 37.359022 -121.922657 319 70ft 116kts
10-Jun-21 17:17 37.389943 -121.957002 321 2086ft 179kts
10-Jun-21 17:18 37.439762 -121.961986 48 4726ft 234kts
10-Jun-21 17:19 37.415232 -121.887605 147 5056ft 276kts
10-Jun-21 17:20 37.357727 -121.823749 136 5561ft 276kts
10-Jun-21 17:21 37.301143 -121.756234 138 9243ft 287kts
10-Jun-21 17:22 37.237711 -121.684392 139 11868ft 341kts
10-Jun-21 17:23 37.163905 -121.601116 140 14996ft 368kts
10-Jun-21 17:24 37.085599 -121.512956 142 18006ft 388kts
10-Jun-21 17:25 37.007958 -121.413372 135 20779ft 411kts
10-Jun-21 17:26 36.929557 -121.305203 136 23234ft 427kts
10-Jun-21 17:27 36.848183 -121.193634 136 25369ft 444kts
10-Jun-21 17:28 36.763150 -121.078071 136 27272ft 458kts
10-Jun-21 17:29 36.675466 -120.959703 137 28921ft 471kts
10-Jun-21 17:30 36.580582 -120.845220 142 30423ft 480kts
10-Jun-21 17:31 36.481815 -120.731004 142 31792ft 488kts
10-Jun-21 17:32 36.383391 -120.616571 142 33565ft 481kts
10-Jun-21 17:33 36.286470 -120.503963 143 35025ft 476kts
10-Jun-21 17:33 36.206023 -120.411056 143 36055ft 475kts
10-Jun-21 17:35 36.093247 -120.281304 144 37375ft 473kts
10-Jun-21 17:35 36.013398 -120.189372 145 38181ft 472kts
10-Jun-21 17:36 35.916713 -120.079127 145 39063ft 471kts
10-Jun-21 17:37 35.821725 -119.965934 139 39136ft 480kts
10-Jun-21 17:39 35.720200 -119.820276 138 39138ft 480kts
10-Jun-21 17:40 35.632738 -119.696607 139 39140ft 479kts
10-Jun-21 17:40 35.559878 -119.593020 139 39137ft 479kts
10-Jun-21 17:41 35.472611 -119.469999 139 39134ft 479kts
10-Jun-21 17:42 35.384987 -119.347133 139 39135ft 478kts
10-Jun-21 17:43 35.297536 -119.224980 139 39132ft 476kts
10-Jun-21 17:44 35.209934 -119.103058 139 39135ft 476kts
10-Jun-21 17:45 35.122520 -118.981825 140 39143ft 475kts
10-Jun-21 17:46 35.035127 -118.861049 140 39176ft 475kts
10-Jun-21 17:47 34.947270 -118.740053 140 39194ft 476kts
10-Jun-21 17:48 34.859463 -118.619549 140 39191ft 474kts
10-Jun-21 17:49 34.771763 -118.499608 140 39178ft 475kts
10-Jun-21 17:50 34.683856 -118.379797 140 39132ft 475kts
10-Jun-21 17:51 34.595949 -118.259963 140 39100ft 475kts
10-Jun-21 17:52 34.507908 -118.140992 141 39089ft 474kts
10-Jun-21 17:53 34.424830 -118.015839 126 39075ft 492kts
10-Jun-21 17:54 34.380610 -117.855454 112 39077ft 505kts
10-Jun-21 17:55 34.341867 -117.692188 113 39082ft 504kts
10-Jun-21 17:56 34.303021 -117.529539 113 39077ft 504kts
10-Jun-21 17:57 34.263680 -117.366677 113 39063ft 504kts
10-Jun-21 17:58 34.224030 -117.204410 113 39080ft 504kts
10-Jun-21 17:59 34.184077 -117.042053 113 39112ft 504kts
10-Jun-21 18:00 34.143955 -116.880044 113 39184ft 504kts
10-Jun-21 18:01 34.103499 -116.717705 114 39186ft 504kts
10-Jun-21 18:02 34.062922 -116.555887 114 39110ft 504kts
10-Jun-21 18:03 34.022209 -116.394495 114 39025ft 503kts
10-Jun-21 18:04 33.981121 -116.232675 114 38991ft 504kts
10-Jun-21 18:05 33.940043 -116.071847 114 38970ft 504kts
10-Jun-21 18:06 33.898599 -115.910559 114 38948ft 504kts
10-Jun-21 18:07 33.857035 -115.749777 114 38937ft 503kts
10-Jun-21 18:08 33.815242 -115.589065 114 38935ft 503kts
10-Jun-21 18:09 33.773222 -115.428441 114 38924ft 502kts
10-Jun-21 18:10 33.731226 -115.268839 114 38913ft 502kts
10-Jun-21 18:11 33.688987 -115.108685 114 38904ft 502kts
10-Jun-21 18:12 33.646505 -114.948847 115 38222ft 502kts
10-Jun-21 18:13 33.603697 -114.789674 115 35519ft 502kts
10-Jun-21 18:14 33.569221 -114.625739 109 32407ft 512kts
10-Jun-21 18:15 33.537848 -114.462141 108 30024ft 496kts
10-Jun-21 18:16 33.506837 -114.303465 108 27662ft 482kts
10-Jun-21 18:17 33.476239 -114.149727 108 25328ft 460kts
10-Jun-21 18:18 33.447222 -114.004361 107 24326ft 448kts
10-Jun-21 18:19 33.418313 -113.860887 107 23191ft 438kts
10-Jun-21 18:20 33.390354 -113.720543 107 22029ft 429kts
10-Jun-21 18:21 33.362305 -113.583088 107 20899ft 419kts
10-Jun-21 18:22 33.334962 -113.449402 107 19802ft 411kts
10-Jun-21 18:23 33.312362 -113.316366 105 18718ft 403kts
10-Jun-21 18:24 33.290620 -113.185890 102 17660ft 397kts
10-Jun-21 18:25 33.274512 -113.058090 95 16746ft 372kts
10-Jun-21 18:26 33.277759 -112.935147 90 15775ft 369kts
10-Jun-21 18:27 33.280777 -112.814488 89 14809ft 351kts
10-Jun-21 18:28 33.291782 -112.701532 84 13903ft 338kts
10-Jun-21 18:29 33.302457 -112.590276 85 13007ft 333kts
10-Jun-21 18:30 33.312398 -112.481387 85 12130ft 327kts
10-Jun-21 18:31 33.322163 -112.373860 85 11263ft 322kts
10-Jun-21 18:32 33.331978 -112.268056 85 10410ft 317kts
10-Jun-21 18:33 33.341059 -112.166370 85 9590ft 296kts
10-Jun-21 18:34 33.348156 -112.073607 91 8791ft 267kts
10-Jun-21 18:35 33.346362 -111.986296 92 7546ft 260kts
10-Jun-21 18:36 33.344965 -111.901735 93 7009ft 251kts
10-Jun-21 18:37 33.343448 -111.817614 93 7017ft 253kts
10-Jun-21 18:38 33.341922 -111.733328 93 7025ft 253kts
10-Jun-21 18:39 33.342079 -111.650487 74 5908ft 251kts
10-Jun-21 18:40 33.400340 -111.628420 351 4855ft 230kts
10-Jun-21 18:41 33.430545 -111.670671 264 4080ft 183kts
10-Jun-21 18:42 33.428863 -111.732667 267 4022ft 187kts
10-Jun-21 18:43 33.428733 -111.792942 267 4039ft 178kts
10-Jun-21 18:44 33.428758 -111.852649 267 3537ft 179kts
10-Jun-21 18:45 33.428790 -111.909074 267 2628ft 155kts
10-Jun-21 18:46 33.428745 -111.956651 270 1873ft 135kts
10-Jun-21 18:47 33.428814 -112.001918 270 1174ft 135kts
10-Jun-21 18:48 33.429403 -112.021734 347 1143ft 10kts
10-Jun-21 18:49 33.429941 -112.017732 90 1143ft 14kts
10-Jun-21 18:50 33.429927 -112.011945 90 1143ft 19kts
10-Jun-21 18:51 33.429935 -112.006085 90 1143ft 15kts
10-Jun-21 18:52 33.430974 -112.003323 359 1143ft 9kts
10-Jun-21 18:53 33.431646 -112.003309 3 1143ft 0kts
10-Jun-21 18:54 33.432053 -112.003495 323 1143ft 5kts
10-Jun-21 18:55 33.432876 -112.001193 93 1143ft 16kts
10-Jun-21 18:56 33.432842 -111.996500 89 1143ft 10kts
10-Jun-21 18:57 33.433410 -111.994602 31 1143ft 0kts
10-Jun-21 18:58 33.433410 -111.994602 31 1143ft 0kts
10-Jun-21 18:59 33.433410 -111.994602 31 1143ft 0kts

Navigation Log

Ident Type
Flight plan parsing failed, navigation log unavailable